Time;durP1;ratioP1;P1;durP2;ratioP2;P2;SDS_P1;SDS_P2;PMS_P1;PMS_P2;Temp;Humidity;BMP_temperature;BMP_pressure;BME280_temperature;BME280_humidity;BME280_pressure;Samples;Min_cycle;Max_cycle;Signal;HPM_P1;HPM_P2
2022/11/30 00:00:53;;;;;;;;;;;5.90;99.90;;;5.10;100.00;97502.53;5054598;28;20005;-57
2022/11/30 00:03:19;;;;;;;;;;;5.90;99.90;;;5.12;100.00;97496.38;5074260;28;19919;-58
2022/11/30 00:05:44;;;;;;;;;;;5.90;99.90;;;5.14;100.00;97497.22;5070648;28;19970;-57
2022/11/30 00:08:10;;;;;;;;;;;5.90;99.90;;;5.09;100.00;97504.25;5066492;28;19920;-57
2022/11/30 00:10:39;;;;;;;;;;;5.90;99.90;;;5.11;100.00;97502.47;5068272;28;20333;-57
2022/11/30 00:13:05;;;;;;;;;;;5.90;99.90;;;5.09;100.00;97498.16;5071643;28;19981;-58
2022/11/30 00:15:31;;;;;;;;;;;5.90;99.90;;;5.12;100.00;97493.75;5069319;28;20353;-58
2022/11/30 00:17:56;;;;;;;;;;;5.90;99.90;;;5.12;100.00;97495.53;5067507;28;21642;-58
2022/11/30 00:20:22;;;;;;;;;;;5.90;99.90;;;5.14;100.00;97491.97;5055104;28;20378;-58
2022/11/30 00:22:48;;;;;;;;;;;5.90;99.90;;;5.13;100.00;97495.50;5058092;28;19959;-60
2022/11/30 00:25:13;;;;;;;;;;;5.90;99.90;;;5.12;100.00;97491.16;5056630;28;19961;-58
2022/11/30 00:27:39;;;;;;;;;;;5.90;99.90;;;5.14;100.00;97494.59;5059196;28;19965;-58
2022/11/30 00:30:05;;;;;;;;;;;5.90;99.90;;;5.08;100.00;97491.19;5058806;28;20261;-58
2022/11/30 00:32:31;;;;;;;;;;;5.90;99.90;;;5.09;100.00;97487.72;5052495;28;19913;-58
2022/11/30 00:34:56;;;;;;;;;;;5.90;99.90;;;5.10;100.00;97500.75;5070751;28;20055;-60
2022/11/30 00:37:22;;;;;;;;;;;5.90;99.90;;;5.08;100.00;97494.69;5058471;28;19923;-58
2022/11/30 00:39:48;;;;;;;;;;;5.90;99.90;;;5.09;100.00;97493.78;5069466;28;19916;-58
2022/11/30 00:42:13;;;;;;;;;;;5.90;99.90;;;5.12;100.00;97485.91;5065414;28;19948;-58
2022/11/30 00:44:39;;;;;;;;;;;5.90;99.90;;;5.10;100.00;97489.44;5062353;28;19920;-58
2022/11/30 00:47:05;;;;;;;;;;;5.90;99.90;;;5.08;100.00;97491.19;5043611;28;20455;-58
2022/11/30 00:49:32;;;;;;;;;;;5.80;99.90;;;5.09;100.00;97488.56;5069677;28;19965;-58
2022/11/30 00:51:58;;;;;;;;;;;5.80;99.90;;;5.04;100.00;97492.97;5053036;28;20083;-58
2022/11/30 00:54:24;;;;;;;;;;;5.80;99.90;;;5.03;100.00;97490.41;5069083;28;20168;-58
2022/11/30 00:56:50;;;;;;;;;;;5.80;99.90;;;5.03;100.00;97496.50;5071399;28;19920;-58
2022/11/30 00:59:15;;;;;;;;;;;5.80;99.90;;;5.04;100.00;97503.44;5069858;28;19985;-58
2022/11/30 01:01:41;;;;;;;;;;;5.80;99.90;;;5.03;100.00;97493.03;5064143;28;20345;-58
2022/11/30 01:04:06;;;;;;;;;;;5.80;99.90;;;5.02;100.00;97494.75;5066724;28;19942;-58
2022/11/30 01:06:32;;;;;;;;;;;5.80;99.90;;;5.04;100.00;97499.97;5067591;28;20769;-58
2022/11/30 01:08:58;;;;;;;;;;;5.80;99.90;;;5.05;100.00;97492.09;5064329;28;19938;-58
2022/11/30 01:11:26;;;;;;;;;;;5.80;99.90;;;5.06;100.00;97499.09;5057736;28;20431;-58
2022/11/30 01:13:52;;;;;;;;;;;5.80;99.90;;;5.07;100.00;97503.41;5061718;28;19927;-58
2022/11/30 01:16:20;;;;;;;;;;;5.80;99.90;;;5.07;100.00;97495.56;5059055;28;20411;-58
2022/11/30 01:18:46;;;;;;;;;;;5.80;99.90;;;5.07;100.00;97498.19;5058745;28;20368;-58
2022/11/30 01:21:15;;;;;;;;;;;5.80;99.90;;;5.04;100.00;97495.59;5068053;28;19985;-58
2022/11/30 01:23:40;;;;;;;;;;;5.80;99.90;;;4.99;100.00;97505.28;5065160;28;19916;-58
2022/11/30 01:26:07;;;;;;;;;;;5.80;99.90;;;4.97;100.00;97501.78;5062086;28;20560;-58
2022/11/30 01:28:35;;;;;;;;;;;5.80;99.90;;;5.02;100.00;97513.06;5063913;28;20459;-58
2022/11/30 01:31:06;;;;;;;;;;;5.80;99.90;;;5.04;100.00;97503.44;5057183;28;19916;-58
2022/11/30 01:33:32;;;;;;;;;;;5.80;99.90;;;5.04;100.00;97506.06;5059455;28;19927;-58
2022/11/30 01:36:13;;;;;;;;;;;5.80;99.90;;;5.00;100.00;97511.38;5069464;28;19924;-58
2022/11/30 01:38:44;;;;;;;;;;;5.80;99.90;;;4.96;100.00;97507.91;5072494;28;19916;-58
2022/11/30 01:41:12;;;;;;;;;;;5.70;99.90;;;4.93;100.00;97510.56;5065655;28;20051;-58
2022/11/30 01:43:42;;;;;;;;;;;5.70;99.90;;;4.94;100.00;97517.53;5064804;28;20356;-58
2022/11/30 01:46:41;;;;;;;;;;;5.70;99.90;;;4.97;100.00;97528.81;5050015;28;19938;-58
2022/11/30 01:49:09;;;;;;;;;;;5.70;99.90;;;4.98;100.00;97516.59;5053121;28;20006;-58
2022/11/30 01:51:39;;;;;;;;;;;5.70;99.90;;;4.96;100.00;97523.59;5061958;28;20176;-58
2022/11/30 01:54:08;;;;;;;;;;;5.70;99.90;;;4.91;100.00;97514.94;5050112;28;19920;-58
2022/11/30 01:56:34;;;;;;;;;;;5.70;99.90;;;4.90;100.00;97510.59;5068818;28;19915;-58
2022/11/30 01:59:00;;;;;;;;;;;5.70;99.90;;;4.89;100.00;97508.88;5053724;28;20328;-58
2022/11/30 02:01:26;;;;;;;;;;;5.70;99.90;;;4.86;100.00;97514.13;5059848;28;19964;-58
2022/11/30 02:04:05;;;;;;;;;;;5.60;99.90;;;4.85;100.00;97512.44;5059871;28;20292;-58
2022/11/30 02:06:31;;;;;;;;;;;5.60;99.90;;;4.80;100.00;97509.00;5047942;28;20014;-58
2022/11/30 02:08:56;;;;;;;;;;;5.60;99.90;;;4.82;100.00;97512.47;5060989;28;21007;-58
2022/11/30 02:11:22;;;;;;;;;;;5.60;99.90;;;4.81;100.00;97513.31;5053564;28;19952;-58
2022/11/30 02:14:03;;;;;;;;;;;5.60;99.90;;;4.80;100.00;97517.69;5055451;28;20302;-58
2022/11/30 02:16:41;;;;;;;;;;;5.60;99.90;;;4.78;100.00;97522.94;5060163;28;19964;-58
2022/11/30 02:19:17;;;;;;;;;;;5.60;99.90;;;4.74;100.00;97516.03;5056976;28;19916;-58
2022/11/30 02:22:03;;;;;;;;;;;5.50;99.90;;;4.78;100.00;97528.16;5049548;28;20425;-58
2022/11/30 02:25:01;;;;;;;;;;;5.50;99.90;;;4.78;100.00;97522.94;5057798;28;20019;-58
2022/11/30 02:28:07;;;;;;;;;;;5.50;99.90;;;4.81;100.00;97518.56;5051106;28;19924;-58
2022/11/30 02:30:35;;;;;;;;;;;5.60;99.90;;;4.82;100.00;97518.53;5042843;28;19927;-58
2022/11/30 02:33:01;;;;;;;;;;;5.60;99.90;;;4.84;100.00;97513.28;5041671;28;20090;-58
2022/11/30 02:35:29;;;;;;;;;;;5.60;99.90;;;4.87;100.00;97516.75;5054142;28;20276;-58
2022/11/30 02:37:56;;;;;;;;;;;5.60;99.90;;;4.89;100.00;97514.97;5050467;28;19920;-57
2022/11/30 02:40:21;;;;;;;;;;;5.70;99.90;;;4.93;100.00;97521.03;5037846;28;20735;-58
2022/11/30 02:42:49;;;;;;;;;;;5.70;99.90;;;4.96;100.00;97515.75;5057722;28;19923;-58
2022/11/30 02:45:15;;;;;;;;;;;5.70;99.90;;;5.00;100.00;97516.59;5057515;28;19970;-58
2022/11/30 02:48:07;;;;;;;;;;;5.70;99.90;;;4.99;100.00;97520.97;5061814;28;20743;-59
2022/11/30 02:50:43;;;;;;;;;;;5.80;99.90;;;5.02;100.00;97517.44;5056048;28;22790;-58
2022/11/30 02:53:09;;;;;;;;;;;5.80;99.90;;;5.01;100.00;97526.13;5063292;28;20257;-58
2022/11/30 02:55:35;;;;;;;;;;;5.80;99.90;;;5.01;100.00;97515.69;5055904;28;19978;-58
2022/11/30 02:58:00;;;;;;;;;;;5.80;99.90;;;4.99;100.00;97523.56;5057466;28;20006;-58
2022/11/30 03:00:26;;;;;;;;;;;5.80;99.90;;;5.00;100.00;97522.66;5057049;28;20300;-58
2022/11/30 03:02:52;;;;;;;;;;;5.80;99.90;;;4.99;100.00;97515.72;5043382;28;19920;-57
2022/11/30 03:05:17;;;;;;;;;;;5.80;99.90;;;5.01;100.00;97516.56;5059566;28;19916;-58
2022/11/30 03:07:43;;;;;;;;;;;5.80;99.90;;;5.04;100.00;97518.28;5050827;28;20018;-58
2022/11/30 03:10:09;;;;;;;;;;;5.80;99.90;;;5.04;100.00;97518.28;5062220;28;19915;-58
2022/11/30 03:12:34;;;;;;;;;;;5.80;99.90;;;5.05;100.00;97523.47;5067703;28;20365;-58
2022/11/30 03:15:00;;;;;;;;;;;5.80;99.90;;;5.04;100.00;97518.28;5072624;28;19916;-58
2022/11/30 03:17:26;;;;;;;;;;;5.80;99.90;;;5.05;100.00;97527.84;5059358;28;20023;-58
2022/11/30 03:19:51;;;;;;;;;;;5.80;99.90;;;5.02;100.00;97527.88;5058825;28;19924;-57
2022/11/30 03:22:17;;;;;;;;;;;5.80;99.90;;;5.06;100.00;97538.28;5065883;28;19919;-57
2022/11/30 03:24:43;;;;;;;;;;;5.80;99.90;;;5.07;100.00;97537.41;5064406;28;19959;-58
2022/11/30 03:27:08;;;;;;;;;;;5.80;99.90;;;5.08;100.00;97528.69;5066976;28;19916;-57
2022/11/30 03:29:34;;;;;;;;;;;5.80;99.90;;;5.06;100.00;97533.06;5050276;28;19916;-57
2022/11/30 03:31:59;;;;;;;;;;;5.90;99.90;;;4.98;100.00;97532.28;5065054;28;20383;-57
2022/11/30 03:34:26;;;;;;;;;;;5.80;99.90;;;4.97;100.00;97534.03;5062006;28;19919;-57
2022/11/30 03:36:52;;;;;;;;;;;5.70;99.90;;;5.01;100.00;97542.72;5040802;28;19960;-58
2022/11/30 03:39:18;;;;;;;;;;;5.80;99.90;;;5.03;100.00;97537.47;5058203;28;19920;-57
2022/11/30 03:41:43;;;;;;;;;;;5.80;99.90;;;5.01;100.00;97532.25;5065584;28;19920;-57
2022/11/30 03:44:09;;;;;;;;;;;5.80;99.90;;;5.00;100.00;97532.28;5069088;28;19969;-57
2022/11/30 03:46:35;;;;;;;;;;;5.80;99.90;;;5.02;100.00;97528.75;5052070;28;19922;-57
2022/11/30 03:49:00;;;;;;;;;;;5.80;99.90;;;5.04;100.00;97537.41;5045202;28;20801;-57
2022/11/30 03:51:26;;;;;;;;;;;5.80;99.90;;;5.06;100.00;97543.53;5065058;28;20395;-57
2022/11/30 03:53:51;;;;;;;;;;;5.80;99.90;;;5.03;100.00;97540.94;5059782;28;19916;-57
2022/11/30 03:56:18;;;;;;;;;;;5.80;99.90;;;4.98;100.00;97540.97;5059034;28;19924;-57
2022/11/30 03:58:44;;;;;;;;;;;5.80;99.90;;;4.98;100.00;97535.75;5065010;28;19920;-57
2022/11/30 04:01:15;;;;;;;;;;;5.80;99.90;;;5.00;100.00;97540.97;5051572;28;19916;-57
2022/11/30 04:03:41;;;;;;;;;;;5.80;99.90;;;5.04;100.00;97534.81;5065869;28;19913;-57
2022/11/30 04:06:08;;;;;;;;;;;5.80;99.90;;;5.02;100.00;97536.59;5063815;28;19912;-57
2022/11/30 04:08:34;;;;;;;;;;;5.80;99.90;;;4.96;100.00;97529.69;5065785;28;19920;-57
2022/11/30 04:11:00;;;;;;;;;;;5.80;99.90;;;4.98;100.00;97540.13;5066889;28;19934;-57
2022/11/30 04:13:27;;;;;;;;;;;5.80;99.90;;;5.02;100.00;97535.72;5081953;22;19935;-40
2022/11/30 04:15:53;;;;;;;;;;;5.80;99.90;;;4.95;100.00;97527.09;5065210;28;20014;-40
2022/11/30 04:18:20;;;;;;;;;;;5.80;99.90;;;5.03;100.00;97543.56;5067499;28;20018;-41
2022/11/30 04:20:45;;;;;;;;;;;5.80;99.90;;;5.06;100.00;97540.91;5065055;28;19931;-41
2022/11/30 04:23:11;;;;;;;;;;;5.80;99.90;;;5.05;100.00;97541.78;5062003;28;19912;-41
2022/11/30 04:25:38;;;;;;;;;;;5.80;99.90;;;5.08;100.00;97541.75;5046817;28;19924;-41
2022/11/30 04:28:04;;;;;;;;;;;5.80;99.90;;;5.07;100.00;97539.16;5048665;28;19924;-41
2022/11/30 04:30:30;;;;;;;;;;;5.80;99.90;;;5.09;100.00;97540.00;5049029;28;20449;-41
2022/11/30 04:32:56;;;;;;;;;;;5.80;99.90;;;5.07;100.00;97539.16;5048554;28;19912;-41
2022/11/30 04:35:22;;;;;;;;;;;5.80;99.90;;;5.03;100.00;97532.25;5035230;28;19920;-41
2022/11/30 04:37:47;;;;;;;;;;;5.80;99.90;;;5.05;100.00;97541.78;5051717;28;19956;-40
2022/11/30 04:40:13;;;;;;;;;;;5.80;99.90;;;5.04;100.00;97541.78;5051637;28;20034;-41
2022/11/30 04:42:39;;;;;;;;;;;5.80;99.90;;;5.06;100.00;97542.63;5053782;28;20287;-42
2022/11/30 04:45:05;;;;;;;;;;;5.80;99.90;;;5.05;100.00;97541.78;5054500;28;20699;-41
2022/11/30 04:47:30;;;;;;;;;;;5.80;99.90;;;5.08;100.00;97546.97;5055605;28;20475;-41
2022/11/30 04:49:56;;;;;;;;;;;5.80;99.90;;;5.09;100.00;97546.06;5054397;28;20388;-40
2022/11/30 04:52:21;;;;;;;;;;;5.80;99.90;;;5.08;100.00;97540.84;5055190;28;19912;-41
2022/11/30 04:54:47;;;;;;;;;;;5.80;99.90;;;5.03;100.00;97532.25;5052908;28;19920;-40
2022/11/30 04:57:13;;;;;;;;;;;5.80;99.90;;;5.08;100.00;97539.13;5048873;28;20418;-41
2022/11/30 04:59:38;;;;;;;;;;;5.80;99.90;;;5.09;100.00;97542.59;5054367;28;19917;-41
2022/11/30 05:02:04;;;;;;;;;;;5.80;99.90;;;5.06;100.00;97538.28;5051913;28;19927;-41
2022/11/30 05:04:29;;;;;;;;;;;5.80;99.90;;;5.08;100.00;97535.63;5053508;28;19969;-41
2022/11/30 05:06:55;;;;;;;;;;;5.80;99.90;;;5.09;100.00;97534.75;5046843;28;20257;-41
2022/11/30 05:09:21;;;;;;;;;;;5.80;99.90;;;5.09;100.00;97543.47;5056132;28;19928;-41
2022/11/30 05:11:47;;;;;;;;;;;5.80;99.90;;;5.08;100.00;97538.25;5057309;28;19962;-41
2022/11/30 05:14:13;;;;;;;;;;;5.90;99.90;;;5.11;100.00;97543.44;5055453;28;19920;-41
2022/11/30 05:16:38;;;;;;;;;;;5.90;99.90;;;5.14;100.00;97546.88;5051631;28;19968;-41
2022/11/30 05:19:04;;;;;;;;;;;5.90;99.90;;;5.15;100.00;97546.00;5051705;28;20036;-41
2022/11/30 05:21:30;;;;;;;;;;;5.90;99.90;;;5.15;100.00;97548.63;5047077;28;19916;-41
2022/11/30 05:23:56;;;;;;;;;;;5.90;99.90;;;5.12;100.00;97547.81;5052863;28;19923;-41
2022/11/30 05:26:21;;;;;;;;;;;5.90;99.90;;;5.16;100.00;97550.34;5051918;28;19920;-41
2022/11/30 05:28:47;;;;;;;;;;;5.90;99.90;;;5.19;100.00;97553.78;5049443;28;19916;-40
2022/11/30 05:31:12;;;;;;;;;;;5.90;99.90;;;5.19;100.00;97556.41;5052575;28;19921;-41
2022/11/30 05:33:38;;;;;;;;;;;5.90;99.90;;;5.14;100.00;97548.66;5034530;28;21560;-41
2022/11/30 05:36:04;;;;;;;;;;;5.90;99.90;;;5.12;100.00;97555.66;5057108;28;20017;-41
2022/11/30 05:38:29;;;;;;;;;;;5.90;99.90;;;5.13;100.00;97558.25;5045650;28;20460;-40
2022/11/30 05:41:00;;;;;;;;;;;5.90;99.90;;;5.08;100.00;97553.94;5040658;28;19927;-41
2022/11/30 05:43:26;;;;;;;;;;;5.90;99.90;;;5.12;100.00;97551.28;5044197;28;19912;-41
2022/11/30 05:45:51;;;;;;;;;;;5.90;99.90;;;5.18;100.00;97566.00;5051229;28;20199;-41
2022/11/30 05:48:17;;;;;;;;;;;5.90;99.90;;;5.16;100.00;97555.56;5051429;28;20089;-41
2022/11/30 05:50:43;;;;;;;;;;;5.90;99.90;;;5.19;100.00;97559.91;5046955;28;19917;-41
2022/11/30 05:53:08;;;;;;;;;;;6.00;99.90;;;5.15;100.00;97561.69;5053075;28;20248;-42
2022/11/30 05:55:35;;;;;;;;;;;5.90;99.90;;;5.14;100.00;97567.81;5050891;28;20349;-41
2022/11/30 05:58:00;;;;;;;;;;;5.90;99.90;;;5.12;100.00;97563.50;5044893;28;20003;-41
2022/11/30 06:00:26;;;;;;;;;;;5.90;99.90;;;5.15;100.00;97566.03;5053092;28;20011;-41
2022/11/30 06:02:58;;;;;;;;;;;5.90;99.90;;;5.15;100.00;97563.44;5049037;28;20356;-38
2022/11/30 06:05:33;;;;;;;;;;;5.90;99.90;;;5.19;100.00;97565.13;5046697;28;19920;-41
2022/11/30 06:07:59;;;;;;;;;;;5.90;99.90;;;5.14;100.00;97565.19;5032442;28;19920;-41
2022/11/30 06:10:26;;;;;;;;;;;5.90;99.90;;;5.16;100.00;97565.16;5040525;28;19920;-42
2022/11/30 06:12:51;;;;;;;;;;;5.90;99.90;;;5.15;100.00;97566.94;5048697;28;20012;-42
2022/11/30 06:15:17;;;;;;;;;;;5.90;99.90;;;5.14;100.00;97557.34;5054815;28;19994;-41
2022/11/30 06:17:43;;;;;;;;;;;5.90;99.90;;;5.16;100.00;97562.56;5053896;28;20320;-42
2022/11/30 06:20:09;;;;;;;;;;;5.90;99.90;;;5.16;100.00;97562.56;5052546;28;19920;-41
2022/11/30 06:22:34;;;;;;;;;;;5.90;99.90;;;5.17;100.00;97559.06;5052599;28;19916;-41
2022/11/30 06:25:00;;;;;;;;;;;5.90;99.90;;;5.15;100.00;97559.09;5056582;28;19916;-42
2022/11/30 06:27:29;;;;;;;;;;;5.90;99.90;;;5.15;100.00;97560.81;5045717;28;20333;-42
2022/11/30 06:29:55;;;;;;;;;;;5.90;99.90;;;5.15;100.00;97556.47;5053462;28;19923;-41
2022/11/30 06:32:21;;;;;;;;;;;5.90;99.90;;;5.13;100.00;97557.34;5055269;28;19913;-42
2022/11/30 06:34:46;;;;;;;;;;;5.90;99.90;;;5.16;100.00;97560.78;5050561;28;19928;-40
2022/11/30 06:37:12;;;;;;;;;;;5.90;99.90;;;5.11;100.00;97544.31;5054076;28;20031;-41
2022/11/30 06:39:37;;;;;;;;;;;5.90;99.90;;;5.06;100.00;97550.47;5053771;28;19959;-41
2022/11/30 06:42:03;;;;;;;;;;;5.90;99.90;;;5.03;100.00;97556.63;5055601;28;20353;-41
2022/11/30 06:44:29;;;;;;;;;;;5.80;99.90;;;5.03;100.00;97564.47;5053915;28;19916;-40
2022/11/30 06:46:55;;;;;;;;;;;5.80;99.90;;;4.98;100.00;97551.44;5049695;28;19920;-41
2022/11/30 06:49:20;;;;;;;;;;;5.80;99.90;;;5.04;100.00;97557.47;5052593;28;19950;-41
2022/11/30 06:51:46;;;;;;;;;;;5.80;99.90;;;5.03;100.00;97569.69;5052460;28;19912;-40
2022/11/30 06:54:11;;;;;;;;;;;5.80;99.90;;;5.06;100.00;97566.16;5050023;28;19962;-40
2022/11/30 06:56:37;;;;;;;;;;;5.80;99.90;;;5.09;100.00;97564.38;5050822;28;19947;-40
2022/11/30 06:59:03;;;;;;;;;;;5.80;99.90;;;5.11;100.00;97567.84;5055264;28;19915;-40
2022/11/30 07:01:28;;;;;;;;;;;5.80;99.90;;;4.94;100.00;97538.44;5053197;28;19920;-40
2022/11/30 07:03:54;;;;;;;;;;;5.90;99.90;;;5.16;100.00;97565.16;5052354;28;20585;-41
2022/11/30 07:06:19;;;;;;;;;;;5.90;99.90;;;5.22;100.00;97566.84;5052839;28;20349;-40
2022/11/30 07:08:45;;;;;;;;;;;6.00;99.90;;;5.27;100.00;97572.88;5054223;28;20391;-40
2022/11/30 07:11:12;;;;;;;;;;;6.00;99.90;;;5.29;100.00;97569.38;5055425;28;20032;-40
2022/11/30 07:13:38;;;;;;;;;;;6.00;99.90;;;5.33;100.00;97570.19;5049195;28;19918;-40
2022/11/30 07:16:09;;;;;;;;;;;6.10;99.90;;;5.37;100.00;97579.72;5052251;28;20250;-40
2022/11/30 07:18:35;;;;;;;;;;;6.10;99.90;;;5.35;100.00;97566.66;5051838;28;20671;-40
2022/11/30 07:21:02;;;;;;;;;;;6.10;99.90;;;5.40;100.00;97578.81;5050332;28;19920;-40
2022/11/30 07:26:12;;;;;;;;;;;6.20;99.90;;;5.44;100.00;97583.13;5049286;28;20284;-40
2022/11/30 07:28:44;;;;;;;;;;;6.20;99.90;;;5.45;100.00;97582.22;5053892;28;19912;-41
2022/11/30 07:31:22;;;;;;;;;;;6.20;99.90;;;5.45;100.00;97587.47;5057479;28;19935;-40
2022/11/30 07:33:49;;;;;;;;;;;6.20;99.90;;;5.47;100.00;97577.84;5051717;28;19912;-40
2022/11/30 07:36:16;;;;;;;;;;;6.20;99.90;;;5.49;100.00;97587.41;5055738;28;19970;-41
2022/11/30 07:38:42;;;;;;;;;;;6.20;99.90;;;5.49;100.00;97586.53;5038173;28;19912;-40
2022/11/30 07:41:08;;;;;;;;;;;6.20;99.90;;;5.50;100.00;97583.88;5054894;28;20173;-40
2022/11/30 07:43:34;;;;;;;;;;;6.20;99.90;;;5.50;100.00;97589.13;5052852;28;19916;-40
2022/11/30 07:46:00;;;;;;;;;;;6.30;99.90;;;5.47;100.00;97583.06;5056616;28;20322;-41
2022/11/30 07:48:25;;;;;;;;;;;6.20;99.90;;;5.42;100.00;97583.16;5054125;28;19924;-40
2022/11/30 07:50:51;;;;;;;;;;;6.20;99.90;;;5.44;100.00;97577.91;5053651;28;19917;-41
2022/11/30 07:53:17;;;;;;;;;;;6.20;99.90;;;5.45;100.00;97588.31;5053919;28;19913;-40
2022/11/30 07:55:43;;;;;;;;;;;6.30;99.90;;;5.50;100.00;97585.66;5050547;28;19920;-41
2022/11/30 07:58:10;;;;;;;;;;;6.20;99.90;;;5.48;100.00;97590.03;5051129;28;20127;-40
2022/11/30 08:00:38;;;;;;;;;;;6.30;99.90;;;5.46;100.00;97595.28;5051081;28;19920;-41
2022/11/30 08:03:04;;;;;;;;;;;6.20;99.90;;;5.46;100.00;97599.66;5055095;28;19929;-41
2022/11/30 08:05:30;;;;;;;;;;;6.20;99.90;;;5.49;100.00;97600.50;5059356;28;19916;-41
2022/11/30 08:07:55;;;;;;;;;;;6.30;99.90;;;5.55;100.00;97603.00;5059821;28;19923;-41
2022/11/30 08:10:22;;;;;;;;;;;6.30;99.90;;;5.65;100.00;97605.50;5060614;28;20031;-41
2022/11/30 08:12:48;;;;;;;;;;;6.30;99.90;;;5.72;100.00;97605.41;5040775;28;20004;-41
2022/11/30 08:15:14;;;;;;;;;;;6.40;99.90;;;5.74;100.00;97594.88;5061844;28;19962;-41
2022/11/30 08:17:40;;;;;;;;;;;6.50;99.90;;;5.85;100.00;97603.47;5060974;28;19980;-41
2022/11/30 08:20:07;;;;;;;;;;;6.60;99.90;;;5.95;100.00;97609.41;5062493;28;20380;-41
2022/11/30 08:22:33;;;;;;;;;;;6.70;99.90;;;6.05;100.00;97615.44;5060224;28;20011;-41
2022/11/30 08:24:58;;;;;;;;;;;6.80;99.90;;;6.18;100.00;97611.72;5059423;28;20457;-40
2022/11/30 08:27:24;;;;;;;;;;;6.90;99.90;;;6.28;100.00;97610.69;5061828;28;19983;-40
2022/11/30 08:29:49;;;;;;;;;;;7.00;99.90;;;6.41;100.00;97605.25;5060023;28;20007;-41
2022/11/30 08:32:15;;;;;;;;;;;7.20;99.90;;;6.35;100.00;97592.22;5059102;28;20384;-40
2022/11/30 08:34:41;;;;;;;;;;;7.20;99.90;;;6.39;100.00;97602.66;5060873;28;19923;-40
2022/11/30 08:37:06;;;;;;;;;;;7.30;99.90;;;6.56;100.00;97615.44;5062039;28;20272;-42
2022/11/30 08:39:33;;;;;;;;;;;7.30;99.90;;;6.55;100.00;97616.34;5063200;28;19916;-41
2022/11/30 08:42:00;;;;;;;;;;;7.30;99.90;;;6.49;100.00;97616.44;5058155;28;20065;-40
2022/11/30 08:44:27;;;;;;;;;;;7.30;99.90;;;6.48;100.00;97619.97;5060525;28;19916;-41
2022/11/30 08:46:52;;;;;;;;;;;7.20;99.90;;;6.44;100.00;97618.28;5058804;28;19917;-40
2022/11/30 08:49:19;;;;;;;;;;;7.20;99.90;;;6.46;100.00;97621.72;5058898;28;19943;-40
2022/11/30 08:51:46;;;;;;;;;;;7.20;99.90;;;6.50;100.00;97618.19;5060917;28;20128;-40
2022/11/30 08:54:12;;;;;;;;;;;7.20;99.90;;;6.49;100.00;97619.91;5059754;28;20375;-40
2022/11/30 08:56:37;;;;;;;;;;;7.20;99.90;;;6.44;100.00;97611.31;5059966;28;19924;-40
2022/11/30 08:59:03;;;;;;;;;;;7.20;99.90;;;6.46;100.00;97613.88;5040702;28;19965;-40
2022/11/30 09:01:29;;;;;;;;;;;7.20;99.90;;;6.57;100.00;97627.66;5060008;28;20348;-41
2022/11/30 09:03:56;;;;;;;;;;;7.20;99.90;;;6.59;100.00;97625.03;5056892;28;20150;-40
2022/11/30 09:06:24;;;;;;;;;;;7.30;99.90;;;6.66;100.00;97630.13;5060360;28;19939;-40
2022/11/30 09:08:51;;;;;;;;;;;7.40;99.90;;;6.70;100.00;97625.69;5060716;28;19915;-41
2022/11/30 09:11:24;;;;;;;;;;;7.40;99.90;;;6.81;100.00;97630.75;5059528;28;19994;-40
2022/11/30 09:13:52;;;;;;;;;;;7.50;99.90;;;6.88;100.00;97640.22;5057959;28;19912;-40
2022/11/30 09:16:19;;;;;;;;;;;7.50;99.90;;;6.93;100.00;97641.00;5060293;28;20003;-40
2022/11/30 09:18:45;;;;;;;;;;;7.60;99.90;;;6.98;100.00;97636.56;5058809;28;19912;-40
2022/11/30 09:21:13;;;;;;;;;;;7.60;99.90;;;6.87;100.00;97628.00;5061756;28;19967;-40
2022/11/30 09:23:39;;;;;;;;;;;7.60;99.90;;;7.02;100.00;97642.59;5058564;28;19912;-40
2022/11/30 09:26:08;;;;;;;;;;;7.70;99.90;;;7.01;100.00;97646.94;5059962;28;20381;-41
2022/11/30 09:28:34;;;;;;;;;;;7.70;99.90;;;6.99;100.00;97648.75;5042237;28;20000;-40
2022/11/30 09:31:01;;;;;;;;;;;7.70;99.90;;;6.99;100.00;97638.25;5057559;28;20599;-40
2022/11/30 09:33:27;;;;;;;;;;;7.70;99.90;;;7.11;100.00;97647.66;5059164;28;19921;-40
2022/11/30 09:35:56;;;;;;;;;;;7.80;99.90;;;7.19;100.00;97642.25;5041536;28;19943;-40
2022/11/30 09:38:22;;;;;;;;;;;7.90;99.90;;;7.09;100.00;97644.22;5060884;28;20368;-40
2022/11/30 09:40:54;;;;;;;;;;;7.90;99.90;;;7.17;100.00;97644.91;5053352;28;19978;-40
2022/11/30 09:43:50;;;;;;;;;;;7.90;99.90;;;7.18;100.00;97649.28;5058556;28;20202;-40
2022/11/30 09:46:16;;;;;;;;;;;7.90;99.90;;;7.17;100.00;97654.53;5043562;28;19958;-41
2022/11/30 09:49:05;;;;;;;;;;;7.90;99.90;;;7.20;100.00;97651.88;5059022;28;19981;-40
2022/11/30 09:51:40;;;;;;;;;;;7.90;99.90;;;7.15;100.00;97648.47;5056838;28;20006;-40
2022/11/30 09:54:12;;;;;;;;;;;7.90;99.90;;;7.10;100.00;97645.91;5056142;28;20073;-40
2022/11/30 09:56:39;;;;;;;;;;;7.80;99.90;;;7.09;100.00;97649.47;5057172;28;19970;-40
2022/11/30 09:59:28;;;;;;;;;;;7.80;99.90;;;7.13;100.00;97645.03;5059332;28;19928;-40
2022/11/30 10:01:54;;;;;;;;;;;7.80;99.90;;;7.15;100.00;97644.06;5058594;28;19916;-41
2022/11/30 10:04:25;;;;;;;;;;;7.90;99.90;;;7.19;100.00;97644.88;5058483;28;20015;-40
2022/11/30 10:06:57;;;;;;;;;;;7.90;99.90;;;7.23;100.00;97644.81;5054316;28;19939;-40
2022/11/30 10:09:28;;;;;;;;;;;7.90;99.90;;;7.30;100.00;97636.81;5054323;28;19912;-40
2022/11/30 10:12:03;;;;;;;;;;;7.90;99.90;;;7.34;100.00;97641.09;5056811;28;19950;-40
2022/11/30 10:14:54;;;;;;;;;;;8.00;99.90;;;7.40;100.00;97636.59;5060737;22;20395;-57
2022/11/30 10:17:28;;;;;;;;;;;8.00;99.90;;;7.48;100.00;97633.78;5058914;28;19915;-57
2022/11/30 10:20:03;;;;;;;;;;;8.20;99.90;;;7.55;100.00;97631.91;5073940;28;20398;-57
2022/11/30 10:22:47;;;;;;;;;;;8.20;99.90;;;7.68;100.00;97633.41;5076335;28;19955;-58
2022/11/30 10:25:22;;;;;;;;;;;8.30;99.90;;;7.77;100.00;97629.69;5063103;28;19932;-57
2022/11/30 10:28:00;;;;;;;;;;;8.40;99.90;;;7.86;100.00;97636.50;5049659;28;19919;-57
2022/11/30 10:30:32;;;;;;;;;;;8.50;99.90;;;7.91;100.00;97634.63;5029363;28;19916;-57
2022/11/30 10:33:04;;;;;;;;;;;8.60;99.90;;;7.79;100.00;97641.03;5044340;28;20002;-57
2022/11/30 10:35:37;;;;;;;;;;;8.60;99.90;;;7.68;100.00;97632.50;5036915;28;20175;-58
2022/11/30 10:38:11;;;;;;;;;;;8.50;99.90;;;7.73;100.00;97633.28;5050021;28;19973;-57
2022/11/30 10:40:45;;;;;;;;;;;8.50;99.90;;;7.75;100.00;97635.00;5051613;28;19990;-57
2022/11/30 10:43:31;;;;;;;;;;;8.50;99.90;;;7.70;100.00;97636.84;5023504;28;20304;-57
2022/11/30 10:45:57;;;;;;;;;;;8.50;99.90;;;7.67;100.00;97631.66;5053413;28;19991;-58
2022/11/30 10:48:33;;;;;;;;;;;8.30;99.90;;;7.56;100.00;97631.88;5049400;28;20003;-58
2022/11/30 10:50:59;;;;;;;;;;;8.30;99.90;;;7.52;100.00;97631.97;5035805;28;19913;-58
2022/11/30 10:53:25;;;;;;;;;;;8.20;99.90;;;7.45;100.00;97623.38;5036383;28;19908;-58
2022/11/30 10:56:12;;;;;;;;;;;8.20;99.90;;;7.33;100.00;97634.13;5051428;28;19921;-58
2022/11/30 10:58:52;;;;;;;;;;;8.10;99.90;;;7.24;100.00;97632.53;5050514;28;19920;-58
2022/11/30 11:01:38;;;;;;;;;;;7.90;99.90;;;7.17;100.00;97625.69;5049466;28;20361;-58
2022/11/30 11:04:11;;;;;;;;;;;7.90;99.90;;;7.13;100.00;97627.50;5051564;28;19924;-58
2022/11/30 11:06:42;;;;;;;;;;;7.80;99.90;;;7.09;100.00;97625.84;5052669;28;19955;-58
2022/11/30 11:09:29;;;;;;;;;;;7.80;99.90;;;7.06;100.00;97623.28;5050497;28;19912;-58
2022/11/30 11:11:57;;;;;;;;;;;7.80;99.90;;;7.01;100.00;97625.13;5053184;28;20411;-58
2022/11/30 11:14:25;;;;;;;;;;;7.80;99.90;;;7.12;100.00;97624.91;5047534;28;20292;-58
2022/11/30 11:16:59;;;;;;;;;;;7.80;99.90;;;7.15;100.00;97622.25;5055284;28;19919;-58
2022/11/30 11:19:40;;;;;;;;;;;7.90;99.90;;;7.24;100.00;97619.44;5051929;28;19974;-58
2022/11/30 11:22:23;;;;;;;;;;;7.90;99.90;;;7.22;100.00;97600.25;5055989;28;19908;-58
2022/11/30 11:24:52;;;;;;;;;;;8.10;99.90;;;7.17;100.00;97629.16;5031980;28;20636;-58
2022/11/30 11:27:31;;;;;;;;;;;8.10;99.90;;;7.25;100.00;97619.41;5049707;28;20678;-58
2022/11/30 11:30:17;;;;;;;;;;;8.10;99.90;;;7.31;100.00;97628.91;5037390;28;19923;-58
2022/11/30 11:33:11;;;;;;;;;;;8.10;99.90;;;7.29;100.00;97635.94;5041034;28;20220;-58